Time;durP1;ratioP1;P1;durP2;ratioP2;P2;SDS_P1;SDS_P2;PMS_P1;PMS_P2;Temp;Humidity;BMP_temperature;BMP_pressure;BME280_temperature;BME280_humidity;BME280_pressure;Samples;Min_cycle;Max_cycle;Signal;HPM_P1;HPM_P2
2023/05/21 00:03:53;;;;;;;38.00;27.40;;;;;;;13.97;100.00;100682.82;181126;1260;44156;-88
2023/05/21 00:07:56;;;;;;;41.70;28.80;;;;;;;13.96;100.00;100681.50;181247;1260;44009;-88
2023/05/21 00:11:59;;;;;;;42.40;28.60;;;;;;;13.97;100.00;100674.07;181200;1259;43847;-89
2023/05/21 00:16:03;;;;;;;41.80;29.80;;;;;;;13.98;100.00;100669.95;181236;1260;58127;-88
2023/05/21 00:20:07;;;;;;;46.30;31.30;;;;;;;13.95;100.00;100667.16;181236;1260;43966;-87
2023/05/21 00:24:11;;;;;;;43.60;31.40;;;;;;;13.96;100.00;100666.35;181161;1262;44194;-88
2023/05/21 00:28:14;;;;;;;39.00;27.70;;;;;;;13.94;100.00;100665.77;181085;1259;43733;-89
2023/05/21 00:32:18;;;;;;;38.10;28.00;;;;;;;13.94;100.00;100670.08;181163;1260;49938;-88
2023/05/21 00:36:24;;;;;;;41.50;30.90;;;;;;;13.91;100.00;100673.05;181253;1257;58328;-88
2023/05/21 00:40:29;;;;;;;39.00;26.30;;;;;;;13.89;100.00;100672.69;181245;1257;43983;-88
2023/05/21 00:44:34;;;;;;;40.80;29.00;;;;;;;13.82;100.00;100670.91;181289;1257;43799;-87
2023/05/21 00:48:38;;;;;;;43.90;31.30;;;;;;;13.73;100.00;100672.49;181182;1260;43966;-88
2023/05/21 00:52:44;;;;;;;41.10;29.10;;;;;;;13.61;100.00;100667.80;181201;1258;44084;-88
2023/05/21 00:56:48;;;;;;;50.90;32.80;;;;;;;13.50;100.00;100671.25;181119;1260;60837;-87
2023/05/21 01:00:54;;;;;;;37.50;29.80;;;;;;;13.49;100.00;100669.56;181156;1258;43843;-87
2023/05/21 01:04:59;;;;;;;;;;;;;;;13.49;100.00;100664.39;181253;1258;43932;-87
2023/05/21 01:09:05;;;;;;;37.60;26.60;;;;;;;13.47;100.00;100661.19;181338;1260;43896;-87
2023/05/21 01:13:08;;;;;;;49.60;29.70;;;;;;;13.47;100.00;100659.31;181108;1260;44140;-87
2023/05/21 01:17:12;;;;;;;31.50;23.90;;;;;;;13.43;100.00;100660.62;181184;1260;58331;-87
2023/05/21 01:21:17;;;;;;;34.30;22.80;;;;;;;13.36;100.00;100665.37;181236;1260;43945;-87
2023/05/21 01:25:22;;;;;;;37.40;28.10;;;;;;;13.27;100.00;100662.70;181165;1259;44157;-87
2023/05/21 01:29:25;;;;;;;29.70;21.60;;;;;;;13.21;100.00;100661.30;181238;1257;44022;-88
2023/05/21 01:33:44;;;;;;;34.30;23.30;;;;;;;13.16;100.00;100660.52;181249;1260;43837;-87
2023/05/21 01:37:54;;;;;;;35.80;24.00;;;;;;;13.03;100.00;100659.79;181181;1260;60073;-87
2023/05/21 01:42:02;;;;;;;38.90;27.70;;;;;;;12.93;100.00;100658.48;181131;1257;43779;-87
2023/05/21 01:46:09;;;;;;;31.30;24.10;;;;;;;12.85;100.00;100661.20;181114;1257;43907;-87
2023/05/21 01:50:14;;;;;;;30.40;23.30;;;;;;;12.76;100.00;100658.21;181219;1257;43788;-87
2023/05/21 01:54:18;;;;;;;32.20;22.30;;;;;;;12.71;100.00;100656.08;181218;1261;43858;-88
2023/05/21 01:58:21;;;;;;;32.30;23.00;;;;;;;12.45;100.00;100653.64;181222;1259;60041;-88
2023/05/21 02:02:25;;;;;;;43.20;28.40;;;;;;;12.26;100.00;100653.45;181172;1257;43979;-87
2023/05/21 02:06:30;;;;;;;39.90;27.30;;;;;;;12.20;100.00;100649.31;181285;1259;43837;-87
2023/05/21 02:10:34;;;;;;;33.00;23.60;;;;;;;12.18;100.00;100643.45;181242;1257;43805;-87
2023/05/21 02:14:38;;;;;;;40.20;23.90;;;;;;;12.19;100.00;100644.29;181232;1259;43765;-88
2023/05/21 02:18:45;;;;;;;32.00;21.80;;;;;;;12.24;100.00;100639.77;181183;1259;57339;-87
2023/05/21 02:22:49;;;;;;;42.10;26.80;;;;;;;12.23;100.00;100639.80;181240;1258;43803;-87
2023/05/21 02:26:52;;;;;;;34.30;27.30;;;;;;;12.26;100.00;100635.46;181213;1259;43808;-87
2023/05/21 02:30:56;;;;;;;30.40;23.00;;;;;;;12.30;100.00;100636.36;181240;1260;44236;-87
2023/05/21 02:35:00;;;;;;;38.90;29.20;;;;;;;12.30;100.00;100638.36;181186;1262;44893;-88
2023/05/21 02:39:03;;;;;;;45.00;30.60;;;;;;;12.33;100.00;100634.16;181068;1259;57894;-88
2023/05/21 02:43:06;;;;;;;40.40;25.80;;;;;;;12.31;100.00;100634.69;181334;1259;44162;-87
2023/05/21 02:47:11;;;;;;;37.60;27.30;;;;;;;12.20;100.00;100633.27;181303;1260;43766;-89
2023/05/21 02:51:14;;;;;;;45.10;34.20;;;;;;;12.14;100.00;100633.29;181125;1258;44312;-89
2023/05/21 02:55:17;;;;;;;46.50;31.50;;;;;;;12.14;100.00;100629.89;181058;1259;44086;-88
2023/05/21 02:59:21;;;;;;;43.70;30.70;;;;;;;12.10;100.00;100632.69;181097;1258;58104;-89
2023/05/21 03:03:24;;;;;;;47.20;31.80;;;;;;;12.12;100.00;100633.05;181174;1260;44056;-88
2023/05/21 03:07:27;;;;;;;40.50;29.00;;;;;;;12.07;100.00;100630.66;181048;1259;44073;-89
2023/05/21 03:11:31;;;;;;;38.90;28.40;;;;;;;11.96;100.00;100633.31;181018;1260;44214;-89
2023/05/21 03:15:34;;;;;;;42.90;27.20;;;;;;;11.86;100.00;100630.86;181003;1259;43811;-89
2023/05/21 03:19:40;;;;;;;34.00;26.10;;;;;;;11.78;100.00;100632.09;181109;1259;59281;-89
2023/05/21 03:23:44;;;;;;;29.90;23.30;;;;;;;11.70;100.00;100634.31;181185;1259;43775;-89
2023/05/21 03:27:47;;;;;;;23.70;19.80;;;;;;;11.71;100.00;100634.10;181197;1258;44223;-89
2023/05/21 03:31:55;;;;;;;32.20;20.30;;;;;;;11.77;100.00;100633.05;181089;1259;44004;-89
2023/05/21 03:35:59;;;;;;;26.20;20.10;;;;;;;11.84;100.00;100636.02;181285;1259;43680;-89
2023/05/21 03:40:03;;;;;;;25.70;18.90;;;;;;;11.92;100.00;100637.73;181180;1259;58227;-89
2023/05/21 03:44:08;;;;;;;24.00;21.30;;;;;;;11.97;100.00;100639.39;181160;1258;44320;-89
2023/05/21 03:48:11;;;;;;;21.30;17.30;;;;;;;12.02;100.00;100640.85;181144;1259;43897;-89
2023/05/21 03:52:14;;;;;;;30.60;20.80;;;;;;;12.08;100.00;100641.60;181194;1259;43908;-89
2023/05/21 03:56:18;;;;;;;28.10;23.10;;;;;;;12.22;100.00;100645.64;181294;1259;43740;-89
2023/05/21 04:00:21;;;;;;;25.60;19.50;;;;;;;12.30;100.00;100638.16;181109;1258;59027;-89
2023/05/21 04:04:24;;;;;;;26.30;21.50;;;;;;;12.42;100.00;100641.45;181110;1257;44016;-89
2023/05/21 04:08:28;;;;;;;26.30;21.30;;;;;;;12.49;100.00;100638.02;181100;1259;45924;-89
2023/05/21 04:12:31;;;;;;;32.00;20.30;;;;;;;12.77;100.00;100640.66;181254;1259;43709;-89
2023/05/21 04:16:37;;;;;;;29.40;24.10;;;;;;;13.35;100.00;100637.45;181180;1258;43714;-88
2023/05/21 04:20:40;;;;;;;28.80;23.10;;;;;;;14.28;100.00;100637.72;181105;1258;59637;-89
2023/05/21 04:24:45;;;;;;;28.70;23.50;;;;;;;15.44;100.00;100637.50;181268;1257;43761;-89
2023/05/21 04:28:49;;;;;;;27.10;21.80;;;;;;;16.46;100.00;100627.13;181376;1259;43764;-89
2023/05/21 04:32:53;;;;;;;27.80;23.20;;;;;;;17.24;100.00;100625.45;181218;1258;43755;-89
2023/05/21 04:36:57;;;;;;;47.00;37.60;;;;;;;18.02;100.00;100628.01;181207;1259;44110;-88
2023/05/21 04:41:02;;;;;;;37.00;29.80;;;;;;;18.93;99.76;100621.96;181342;1258;59522;-88
2023/05/21 04:45:06;;;;;;;25.00;20.60;;;;;;;19.84;93.71;100623.45;181272;1259;43868;-89
2023/05/21 04:49:09;;;;;;;26.60;21.30;;;;;;;20.45;84.99;100618.20;181318;1259;44082;-90
2023/05/21 04:53:12;;;;;;;25.00;20.90;;;;;;;20.92;81.97;100614.36;181296;1259;43984;-89
2023/05/21 04:57:17;;;;;;;24.60;20.60;;;;;;;21.22;81.06;100611.98;181143;1259;44115;-89
2023/05/21 05:01:25;;;;;;;27.90;22.30;;;;;;;21.73;78.84;100613.66;181228;1258;59636;-89
2023/05/21 05:05:29;;;;;;;64.40;52.60;;;;;;;22.05;76.22;100610.52;181180;1258;43759;-90
2023/05/21 05:09:32;;;;;;;38.80;34.90;;;;;;;22.27;74.81;100602.13;181190;1258;43844;-90
2023/05/21 05:13:36;;;;;;;22.90;20.40;;;;;;;22.54;75.22;100603.00;181144;1259;47557;-90
2023/05/21 05:17:39;;;;;;;24.40;21.80;;;;;;;22.89;73.83;100604.77;181434;1259;44020;-90
2023/05/21 05:21:43;;;;;;;23.50;19.70;;;;;;;23.10;72.11;100605.30;181193;1258;58735;-90
2023/05/21 05:25:46;;;;;;;22.90;19.60;;;;;;;23.24;71.92;100603.70;181294;1259;44033;-90
2023/05/21 05:29:49;;;;;;;21.90;16.30;;;;;;;23.43;72.47;100597.37;181198;1257;43929;-90
2023/05/21 05:33:53;;;;;;;22.90;19.30;;;;;;;23.48;71.42;100593.50;181302;1258;43836;-90
2023/05/21 05:37:56;;;;;;;19.50;16.20;;;;;;;23.48;71.18;100591.45;181264;1258;44031;-90
2023/05/21 05:42:00;;;;;;;25.40;22.70;;;;;;;23.37;72.10;100594.05;181174;1258;60786;-90
2023/05/21 05:46:03;;;;;;;24.20;20.40;;;;;;;23.18;72.72;100591.75;181280;1259;43683;-90
2023/05/21 05:50:07;;;;;;;28.40;25.30;;;;;;;22.84;74.12;100587.91;181355;1258;43611;-90
2023/05/21 05:54:10;;;;;;;25.50;22.40;;;;;;;22.67;74.89;100588.16;181215;1259;43976;-90
2023/05/21 05:58:13;;;;;;;21.40;17.50;;;;;;;22.54;75.97;100586.08;181350;1258;43699;-89
2023/05/21 06:02:17;;;;;;;15.30;12.90;;;;;;;22.39;76.03;100587.52;181309;1258;58287;-90
2023/05/21 06:06:20;;;;;;;16.70;15.00;;;;;;;22.38;77.01;100587.67;181211;1259;44060;-89
2023/05/21 06:10:24;;;;;;;20.60;13.90;;;;;;;22.44;77.81;100587.14;181074;1259;44207;-89
2023/05/21 06:14:27;;;;;;;18.90;12.70;;;;;;;22.54;77.56;100576.69;181295;1257;43848;-89
2023/05/21 06:18:30;;;;;;;19.20;14.70;;;;;;;22.61;78.15;100573.23;181278;1258;44007;-90
2023/05/21 06:22:35;;;;;;;13.90;12.10;;;;;;;22.68;76.71;100574.86;181129;1259;58206;-90
2023/05/21 06:26:38;;;;;;;14.80;13.20;;;;;;;22.74;76.83;100574.73;181247;1259;43965;-88
2023/05/21 06:30:42;;;;;;;14.80;13.00;;;;;;;22.84;77.53;100575.33;181317;1257;44035;-87
2023/05/21 06:34:45;;;;;;;14.70;13.00;;;;;;;22.93;76.22;100581.02;181324;1257;43883;-87
2023/05/21 06:38:48;;;;;;;15.30;12.30;;;;;;;23.04;77.05;100580.02;181344;1259;43804;-88
2023/05/21 06:42:52;;;;;;;17.60;15.30;;;;;;;22.95;76.07;100577.77;181269;1257;59641;-88
2023/05/21 06:46:55;;;;;;;29.40;13.50;;;;;;;22.92;76.86;100574.20;181320;1257;43784;-87
2023/05/21 06:50:59;;;;;;;15.80;13.10;;;;;;;22.93;77.75;100573.70;181344;1259;43956;-87
2023/05/21 06:55:02;;;;;;;16.00;12.30;;;;;;;22.84;76.48;100572.41;181367;1257;44264;-87
2023/05/21 06:59:06;;;;;;;15.10;13.50;;;;;;;22.80;77.88;100567.21;181305;1259;43810;-87
2023/05/21 07:03:09;;;;;;;16.90;15.10;;;;;;;22.73;78.06;100564.29;181286;1259;58312;-87
2023/05/21 07:07:13;;;;;;;16.50;12.70;;;;;;;22.76;79.35;100560.48;181290;1257;43849;-87
2023/05/21 07:11:16;;;;;;;16.60;12.60;;;;;;;22.89;78.53;100560.25;181307;1257;43771;-85
2023/05/21 07:15:19;;;;;;;14.30;12.60;;;;;;;23.00;78.91;100557.09;181376;1258;43717;-86
2023/05/21 07:19:23;;;;;;;17.20;14.40;;;;;;;23.07;77.91;100555.25;181300;1257;47171;-85
2023/05/21 07:23:26;;;;;;;15.20;11.90;;;;;;;23.06;77.28;100554.48;181405;1257;60797;-87
2023/05/21 07:27:29;;;;;;;26.30;21.20;;;;;;;23.02;78.88;100559.90;181196;1261;44202;-87
2023/05/21 07:31:32;;;;;;;17.00;15.10;;;;;;;23.16;78.28;100554.54;181257;1258;43823;-87
2023/05/21 07:35:36;;;;;;;21.40;15.90;;;;;;;23.30;78.10;100556.95;181142;1259;43893;-87
2023/05/21 07:39:40;;;;;;;29.80;13.20;;;;;;;23.45;78.24;100554.61;181095;1259;43774;-86
2023/05/21 07:43:43;;;;;;;16.60;14.80;;;;;;;23.65;78.64;100552.20;181089;1259;59971;-87
2023/05/21 07:47:46;;;;;;;18.30;14.20;;;;;;;23.66;76.09;100553.83;181117;1259;44129;-89
2023/05/21 07:51:50;;;;;;;16.30;13.80;;;;;;;23.66;77.07;100551.89;181126;1260;43820;-88
2023/05/21 07:55:53;;;;;;;19.40;14.20;;;;;;;23.70;76.75;100551.16;181189;1259;43904;-88
2023/05/21 07:59:57;;;;;;;16.70;13.00;;;;;;;23.76;76.09;100549.02;181148;1259;44306;-88
2023/05/21 08:04:04;;;;;;;18.30;13.60;;;;;;;23.93;75.72;100545.37;181170;1258;58411;-88
2023/05/21 08:08:08;;;;;;;18.50;12.70;;;;;;;23.99;74.60;100549.98;181141;1258;43966;-88
2023/05/21 08:12:14;;;;;;;16.80;14.00;;;;;;;23.82;75.13;100556.46;181145;1259;43870;-88
2023/05/21 08:16:18;;;;;;;19.90;14.10;;;;;;;23.88;75.66;100551.47;181045;1259;44146;-89
2023/05/21 08:20:21;;;;;;;17.80;12.80;;;;;;;24.08;75.15;100544.98;181292;1257;43778;-88
2023/05/21 08:24:25;;;;;;;15.00;12.20;;;;;;;24.17;75.60;100547.83;181231;1260;59572;-87
2023/05/21 08:28:29;;;;;;;15.30;11.90;;;;;;;24.24;74.12;100542.13;181202;1258;43737;-88
2023/05/21 08:37:06;;;;;;;15.50;11.10;;;;;;;24.61;74.71;100531.73;181055;1261;44036;-90
2023/05/21 08:41:22;;;;;;;11.80;10.70;;;;;;;24.75;72.47;100535.77;181130;1260;43667;-91
2023/05/21 08:45:36;;;;;;;13.10;11.90;;;;;;;24.73;74.66;100536.60;180908;1260;57213;-91
2023/05/21 08:49:43;;;;;;;20.50;16.10;;;;;;;24.66;73.05;100539.09;180987;1262;46349;-90
2023/05/21 08:53:50;;;;;;;14.00;11.60;;;;;;;24.62;73.09;100536.13;181067;1262;43900;-91
2023/05/21 08:58:00;;;;;;;14.40;11.80;;;;;;;24.79;74.33;100542.77;181001;1263;44120;-91
2023/05/21 09:02:11;;;;;;;12.40;11.10;;;;;;;24.92;73.53;100541.59;181089;1262;43821;-91
2023/05/21 09:06:22;;;;;;;11.60;10.50;;;;;;;24.90;72.03;100543.06;181023;1262;57888;-91
2023/05/21 09:15:00;;;;;;;15.10;11.10;;;;;;;24.82;71.76;100542.97;161462;1262;44206;-91
2023/05/21 09:19:10;;;;;;;12.90;10.80;;;;;;;24.76;71.33;100544.42;180997;1264;43869;-90
2023/05/21 09:23:17;;;;;;;12.90;8.10;;;;;;;24.79;71.88;100541.13;181046;1266;44428;-88
2023/05/21 09:27:21;;;;;;;11.30;9.70;;;;;;;24.91;71.59;100537.98;180958;1262;59999;-90
2023/05/21 09:31:25;;;;;;;9.50;8.60;;;;;;;25.00;71.20;100531.34;180901;1262;43888;-89
2023/05/21 09:35:29;;;;;;;13.50;10.10;;;;;;;25.22;71.44;100530.40;181043;1261;44000;-90
2023/05/21 09:39:34;;;;;;;11.80;10.60;;;;;;;25.40;70.25;100530.81;181023;1260;44086;-89
2023/05/21 09:43:41;;;;;;;12.80;9.20;;;;;;;25.55;69.97;100531.47;181058;1260;44018;-90
2023/05/21 09:47:47;;;;;;;18.90;10.10;;;;;;;25.66;69.69;100529.59;181036;1262;58180;-88
2023/05/21 09:56:30;;;;;;;9.10;7.80;;;;;;;25.72;68.77;100525.98;145996;1259;44115;-62
2023/05/21 10:00:34;;;;;;;12.90;9.70;;;;;;;25.84;65.87;100523.80;181380;1260;44120;-62
2023/05/21 10:04:38;;;;;;;14.40;8.70;;;;;;;25.77;66.49;100520.32;181399;1260;43661;-62
2023/05/21 10:08:47;;;;;;;9.60;7.40;;;;;;;25.92;67.26;100515.23;181427;1260;58268;-62
2023/05/21 10:13:22;;;;;;;8.70;7.20;;;;;;;26.02;65.18;100511.91;181394;1260;43174;-62
2023/05/21 10:17:27;;;;;;;10.90;6.90;;;;;;;26.11;65.63;100506.48;180950;1267;43460;-62
2023/05/21 10:21:32;;;;;;;11.80;6.30;;;;;;;26.08;65.72;100505.52;180870;1267;43177;-62
2023/05/21 10:25:35;;;;;;;;;;;;;;;26.13;67.44;100504.48;180949;1267;43166;-62
2023/05/21 10:29:40;;;;;;;8.10;6.50;;;;;;;26.25;66.48;100502.13;180983;1267;57762;-62
2023/05/21 10:33:57;;;;;;;13.10;7.30;;;;;;;26.28;64.76;100496.89;180976;1267;43105;-62
2023/05/21 10:38:03;;;;;;;17.00;12.40;;;;;;;26.25;63.58;100496.95;180974;1267;43830;-62
2023/05/21 10:42:33;;;;;;;16.60;6.10;;;;;;;26.24;63.57;100490.21;180991;1267;43059;-61
2023/05/21 10:46:46;;;;;;;6.60;5.50;;;;;;;26.22;64.15;100484.27;180601;1271;43439;-62
2023/05/21 10:50:54;;;;;;;8.70;6.60;;;;;;;26.21;62.96;100483.36;180738;1271;58039;-62
2023/05/21 10:54:57;;;;;;;5.50;4.50;;;;;;;26.28;62.48;100479.31;180927;1265;44045;-64
2023/05/21 11:03:54;;;;;;;7.10;5.80;;;;;;;26.73;61.71;100477.21;181057;1265;43145;-62
2023/05/21 11:08:01;;;;;;;8.00;5.50;;;;;;;26.88;60.31;100476.21;181008;1267;42981;-61
2023/05/21 11:12:04;;;;;;;6.60;5.50;;;;;;;27.01;60.60;100477.35;180999;1265;58044;-61
2023/05/21 11:16:15;;;;;;;7.10;6.30;;;;;;;26.97;60.12;100475.52;180997;1265;43088;-62
2023/05/21 11:20:21;;;;;;;7.30;6.10;;;;;;;27.03;58.70;100478.84;180993;1265;43816;-62
2023/05/21 11:24:27;;;;;;;8.00;5.30;;;;;;;27.03;57.83;100467.28;181308;1260;43745;-64
2023/05/21 11:28:33;;;;;;;;;;;;;;;27.19;58.84;100470.34;181420;1260;43119;-62
2023/05/21 11:33:12;;;;;;;9.90;5.40;;;;;;;27.29;60.32;100467.02;181423;1260;58814;-61
2023/05/21 11:37:16;;;;;;;8.10;5.70;;;;;;;27.35;59.67;100467.48;181298;1260;43745;-63
2023/05/21 11:41:21;;;;;;;6.90;4.90;;;;;;;27.40;58.14;100464.40;181448;1259;43001;-64
2023/05/21 11:45:53;;;;;;;6.50;5.80;;;;;;;27.35;58.55;100456.69;181352;1260;43924;-63
2023/05/21 11:49:59;;;;;;;6.40;5.30;;;;;;;27.30;59.94;100455.23;181223;1262;43745;-63
2023/05/21 11:54:52;;;;;;;6.50;5.90;;;;;;;27.26;59.48;100451.25;181502;1260;58021;-64
2023/05/21 11:58:55;;;;;;;8.60;5.00;;;;;;;27.28;60.30;100442.63;181459;1260;43748;-64
2023/05/21 12:03:00;;;;;;;6.80;4.50;;;;;;;27.29;58.62;100436.97;181495;1260;43004;-64
2023/05/21 12:07:09;;;;;;;9.20;6.70;;;;;;;27.17;57.81;100437.31;181439;1260;43772;-65
2023/05/21 12:11:12;;;;;;;5.40;4.70;;;;;;;27.06;57.36;100439.16;181313;1260;43781;-64
2023/05/21 12:15:17;;;;;;;7.70;4.70;;;;;;;27.02;59.25;100441.73;181417;1260;58188;-64
2023/05/21 12:19:20;;;;;;;4.80;4.30;;;;;;;27.09;59.48;100438.31;181431;1260;43741;-64
2023/05/21 12:23:25;;;;;;;7.40;3.80;;;;;;;27.26;60.86;100439.70;181435;1259;43013;-64
2023/05/21 12:27:29;;;;;;;5.30;4.40;;;;;;;27.42;59.47;100440.74;181608;1259;43093;-64
2023/05/21 12:31:46;;;;;;;5.20;4.10;;;;;;;27.49;58.99;100436.23;181626;1260;43065;-64
2023/05/21 12:35:50;;;;;;;6.80;4.30;;;;;;;27.54;56.82;100436.10;181565;1260;58341;-64
2023/05/21 12:39:56;;;;;;;7.80;3.90;;;;;;;27.55;56.46;100432.13;181626;1260;43115;-64
2023/05/21 12:43:59;;;;;;;7.60;4.00;;;;;;;27.44;57.75;100431.18;181477;1260;43495;-64
2023/05/21 12:48:03;;;;;;;6.40;4.20;;;;;;;27.38;58.67;100432.88;181578;1260;43873;-64
2023/05/21 12:52:56;;;;;;;3.70;3.30;;;;;;;27.40;57.84;100426.60;181555;1260;42967;-64
2023/05/21 12:57:27;;;;;;;4.40;4.00;;;;;;;27.55;56.15;100422.92;181539;1259;58071;-64
2023/05/21 13:02:00;;;;;;;4.40;3.90;;;;;;;27.58;57.78;100419.52;181428;1260;43076;-65
2023/05/21 13:06:08;;;;;;;5.40;3.60;;;;;;;27.60;59.20;100419.61;181407;1260;42958;-64
2023/05/21 13:10:11;;;;;;;12.70;6.60;;;;;;;27.58;58.26;100416.41;181468;1260;43136;-64
2023/05/21 13:15:13;;;;;;;4.90;3.30;;;;;;;27.61;56.43;100417.48;181575;1260;43737;-64
2023/05/21 13:19:16;;;;;;;22.20;5.40;;;;;;;27.66;59.11;100414.14;181610;1260;58047;-64
2023/05/21 13:23:20;;;;;;;5.50;3.80;;;;;;;27.74;58.12;100405.33;181521;1260;43190;-64
2023/05/21 13:27:22;;;;;;;5.10;3.50;;;;;;;27.70;56.26;100405.73;181551;1260;43361;-64
2023/05/21 13:31:25;;;;;;;5.40;3.20;;;;;;;27.73;57.22;100402.48;181570;1260;43669;-64
2023/05/21 13:35:29;;;;;;;3.80;3.40;;;;;;;27.70;54.50;100403.42;181474;1260;43027;-65
2023/05/21 13:39:57;;;;;;;4.50;2.90;;;;;;;27.65;53.61;100409.03;181582;1260;58291;-64
2023/05/21 13:44:00;;;;;;;7.30;4.10;;;;;;;27.64;56.14;100408.78;181564;1260;43728;-64
2023/05/21 13:48:03;;;;;;;5.80;3.90;;;;;;;27.71;55.27;100407.42;181389;1264;43045;-62
2023/05/21 13:52:07;;;;;;;4.80;3.40;;;;;;;27.87;54.91;100411.95;181554;1260;43689;-61
2023/05/21 13:56:10;;;;;;;4.60;3.40;;;;;;;27.97;54.29;100410.64;181444;1259;43668;-62
2023/05/21 14:00:14;;;;;;;4.10;3.30;;;;;;;28.02;55.66;100412.17;181470;1260;58442;-62
2023/05/21 14:04:18;;;;;;;7.00;3.60;;;;;;;28.11;52.77;100415.20;181398;1260;43883;-61
2023/05/21 14:08:28;;;;;;;4.40;3.50;;;;;;;28.30;55.27;100421.60;181365;1260;43046;-62
2023/05/21 14:12:32;;;;;;;5.00;3.80;;;;;;;28.28;52.27;100414.71;181593;1259;43140;-62
2023/05/21 14:16:35;;;;;;;4.20;3.80;;;;;;;28.29;52.02;100411.95;181651;1259;43431;-62
2023/05/21 14:20:38;;;;;;;7.10;3.40;;;;;;;28.27;52.36;100409.95;181612;1260;58878;-62
2023/05/21 14:24:41;;;;;;;3.30;3.00;;;;;;;28.25;53.94;100403.27;181578;1260;43102;-62
2023/05/21 14:28:45;;;;;;;3.50;3.20;;;;;;;28.06;50.56;100397.66;181492;1260;43011;-61
2023/05/21 14:32:47;;;;;;;8.10;3.60;;;;;;;28.03;51.86;100404.09;181520;1260;43166;-61
2023/05/21 14:36:50;;;;;;;6.40;3.00;;;;;;;28.00;50.45;100403.88;181617;1260;43031;-62
2023/05/21 14:40:53;;;;;;;5.30;3.10;;;;;;;27.95;50.81;100403.27;181671;1260;58113;-62
2023/05/21 14:44:56;;;;;;;5.10;3.10;;;;;;;27.94;52.98;100397.14;181569;1262;43122;-61
2023/05/21 14:49:00;;;;;;;7.00;3.50;;;;;;;27.96;52.22;100393.45;181543;1260;43358;-61
2023/05/21 14:53:04;;;;;;;6.30;3.90;;;;;;;27.90;52.93;100397.30;181529;1260;43096;-62
2023/05/21 14:57:16;;;;;;;4.70;3.00;;;;;;;27.91;52.26;100398.41;181633;1259;43061;-61
2023/05/21 15:01:19;;;;;;;3.60;3.30;;;;;;;27.94;54.96;100387.81;181439;1260;58353;-64
2023/05/21 15:05:23;;;;;;;3.10;2.60;;;;;;;28.01;54.30;100381.86;181290;1262;43833;-61
2023/05/21 15:09:26;;;;;;;5.10;4.10;;;;;;;28.09;52.84;100375.95;181320;1262;43076;-61
2023/05/21 15:13:29;;;;;;;4.60;4.10;;;;;;;28.15;53.24;100375.27;181448;1260;43103;-61
2023/05/21 15:17:33;;;;;;;3.60;3.10;;;;;;;28.20;52.95;100371.91;181389;1262;43381;-61
2023/05/21 15:21:36;;;;;;;3.50;3.10;;;;;;;28.22;53.64;100371.39;181387;1260;59208;-62
2023/05/21 15:25:39;;;;;;;6.50;3.70;;;;;;;28.14;51.55;100365.64;181484;1260;43776;-62
2023/05/21 15:29:44;;;;;;;4.40;3.40;;;;;;;28.07;52.37;100360.89;181458;1260;43071;-62
2023/05/21 15:33:47;;;;;;;5.60;4.10;;;;;;;27.96;51.86;100362.04;181479;1260;43130;-62
2023/05/21 15:37:50;;;;;;;5.00;3.40;;;;;;;27.89;51.94;100359.17;181322;1262;43788;-62
2023/05/21 15:41:53;;;;;;;7.10;3.50;;;;;;;27.81;53.65;100354.25;181456;1260;58044;-62
2023/05/21 16:11:16;;;;;;;4.10;3.20;;;;;;;27.29;54.40;100358.33;180992;1260;43894;-88
2023/05/21 16:36:50;;;;;;;3.90;3.40;;;;;;;27.02;57.27;100359.34;181248;1262;43233;-60
2023/05/21 16:40:55;;;;;;;4.40;3.60;;;;;;;26.93;56.89;100363.60;181300;1261;43420;-58
2023/05/21 16:44:58;;;;;;;3.70;3.10;;;;;;;26.79;57.38;100359.52;181276;1263;43423;-58
2023/05/21 16:49:01;;;;;;;3.60;3.30;;;;;;;26.67;57.67;100362.29;181258;1262;43263;-58
2023/05/21 16:53:06;;;;;;;5.00;3.00;;;;;;;26.52;58.34;100358.93;181326;1262;58132;-58
2023/05/21 16:57:09;;;;;;;4.40;2.80;;;;;;;26.39;57.82;100360.06;181136;1262;196563;-58
2023/05/21 17:01:13;;;;;;;3.50;3.10;;;;;;;26.30;57.21;100356.64;181275;1262;43050;-59
2023/05/21 17:05:16;;;;;;;4.80;2.80;;;;;;;26.14;57.70;100358.42;181264;1266;44109;-58
2023/05/21 17:09:21;;;;;;;4.10;2.50;;;;;;;25.94;56.90;100352.80;181351;1262;43967;-58
2023/05/21 17:13:24;;;;;;;6.10;4.60;;;;;;;25.75;57.09;100355.98;181270;1262;59691;-58
2023/05/21 17:17:27;;;;;;;7.10;4.00;;;;;;;25.53;58.48;100357.22;181257;1262;43419;-59
2023/05/21 17:21:30;;;;;;;4.00;2.90;;;;;;;25.30;60.93;100361.59;181293;1262;43382;-58
2023/05/21 17:25:38;;;;;;;12.60;4.40;;;;;;;24.99;61.34;100367.46;181287;1262;43707;-58
2023/05/21 17:29:42;;;;;;;8.10;3.00;;;;;;;24.71;61.95;100375.73;181205;1259;81249;-87
2023/05/21 17:33:45;;;;;;;4.50;3.80;;;;;;;24.45;61.95;100378.15;180953;1259;58043;-86
2023/05/21 17:37:49;;;;;;;4.70;3.70;;;;;;;24.14;61.92;100376.30;180930;1260;43760;-88
2023/05/21 17:41:52;;;;;;;6.00;3.20;;;;;;;23.84;62.28;100380.10;180992;1259;43986;-86
2023/05/21 17:45:55;;;;;;;3.60;2.90;;;;;;;23.60;62.63;100379.46;180938;1259;43820;-87
2023/05/21 17:49:58;;;;;;;7.40;3.60;;;;;;;23.42;62.75;100378.98;180916;1259;44008;-88
2023/05/21 17:54:02;;;;;;;4.10;3.20;;;;;;;23.25;62.62;100380.12;181039;1259;58300;-88
2023/05/21 17:58:06;;;;;;;4.60;4.20;;;;;;;23.06;62.52;100383.04;181007;1259;44264;-88
2023/05/21 18:02:10;;;;;;;4.10;3.70;;;;;;;22.87;62.33;100381.75;180934;1259;43727;-87
2023/05/21 18:06:13;;;;;;;3.70;3.30;;;;;;;22.72;63.50;100388.80;180910;1259;43913;-87
2023/05/21 18:10:16;;;;;;;6.70;4.40;;;;;;;22.56;64.40;100389.63;180961;1259;43791;-87
2023/05/21 18:14:20;;;;;;;7.90;3.40;;;;;;;22.35;64.06;100391.41;180922;1259;59259;-87
2023/05/21 18:18:23;;;;;;;7.50;4.30;;;;;;;22.20;64.08;100392.10;180887;1259;43716;-86
2023/05/21 18:22:26;;;;;;;4.90;3.60;;;;;;;22.08;64.87;100392.16;180903;1259;44150;-87
2023/05/21 18:26:30;;;;;;;4.40;3.50;;;;;;;21.95;65.30;100391.25;181021;1259;43979;-87
2023/05/21 18:30:34;;;;;;;7.80;4.30;;;;;;;21.81;66.01;100390.66;181020;1262;44167;-85
2023/05/21 18:34:38;;;;;;;4.20;3.30;;;;;;;21.64;66.13;100391.52;180973;1259;60405;-88
2023/05/21 18:38:41;;;;;;;8.70;4.10;;;;;;;21.50;66.76;100388.32;180983;1259;44038;-88
2023/05/21 18:42:44;;;;;;;6.10;4.40;;;;;;;21.37;67.62;100391.08;181041;1259;43803;-89
2023/05/21 18:46:47;;;;;;;5.70;4.30;;;;;;;21.21;68.05;100389.44;180953;1259;44174;-90
2023/05/21 18:50:51;;;;;;;6.50;3.60;;;;;;;21.05;69.12;100389.54;180938;1262;44097;-89
2023/05/21 18:54:54;;;;;;;4.30;3.90;;;;;;;20.92;69.12;100389.86;181053;1260;58332;-88
2023/05/21 18:59:02;;;;;;;4.70;4.20;;;;;;;20.84;69.61;100395.55;181103;1260;44061;-91
2023/05/21 19:03:05;;;;;;;6.20;4.20;;;;;;;20.76;69.83;100396.38;181069;1260;43770;-90
2023/05/21 19:07:10;;;;;;;6.80;5.30;;;;;;;20.67;70.33;100399.58;181010;1259;43977;-90
2023/05/21 19:11:17;;;;;;;6.00;3.80;;;;;;;20.58;70.61;100407.15;181129;1260;44097;-90
2023/05/21 19:15:21;;;;;;;7.60;4.70;;;;;;;20.45;70.60;100404.25;181082;1259;60600;-90
2023/05/21 19:19:25;;;;;;;8.10;4.10;;;;;;;20.36;70.97;100403.42;181068;1259;44004;-90
2023/05/21 19:23:28;;;;;;;6.20;4.50;;;;;;;20.30;70.93;100411.91;181055;1259;44080;-89
2023/05/21 19:27:43;;;;;;;6.10;3.90;;;;;;;20.25;71.20;100415.00;180971;1260;44013;-90
2023/05/21 19:31:47;;;;;;;4.90;4.30;;;;;;;20.20;71.35;100420.79;180957;1259;46896;-89
2023/05/21 19:35:51;;;;;;;4.00;3.40;;;;;;;20.13;71.24;100422.19;181036;1260;58129;-89
2023/05/21 19:39:55;;;;;;;5.50;4.20;;;;;;;20.05;71.03;100418.13;181161;1259;43776;-90